Aaronsburg, Pennsylvania
Current Conditions -  °F | °C
As of 6:53 PM on Friday 24 Oct 2014 (Local Time) from KUNV Reporting Station
Clear Clear  
Wind Chill: 55°   Ceiling: Unl
Heat Index: 55°   Visibility: 10mi
Dew Point: 36°   Wind: 5mph
Humidity: 47%   Direction: 310°NW
Pressure: 29.94"   Gusts: NA
Location:  40.9°N, 77.45°W
Report Text: KUNV 242253Z 31004KT 10SM SKC 13/02 A2994
Loading
Personal Weather Stations






























Interactive Weather Map
Tropical Storm Tracking
New forecast layout! Learn more

10-Day Weather Forecast

Advertisements
Track Severe Weather on mobile